Time;durP1;ratioP1;P1;durP2;ratioP2;P2;SDS_P1;SDS_P2;PMS_P1;PMS_P2;Temp;Humidity;BMP_temperature;BMP_pressure;BME280_temperature;BME280_humidity;BME280_pressure;Samples;Min_cycle;Max_cycle;Signal;HPM_P1;HPM_P2
2021/04/06 00:01:52;;;;;;;;;;;;;;;-1.17;100.00;99673.03;5051986;28;20314;-72
2021/04/06 00:04:21;;;;;;;;;;;;;;;-1.20;100.00;99668.72;5051920;28;20303;-73
2021/04/06 00:06:50;;;;;;;;;;;;;;;-1.23;100.00;99675.06;5051551;28;20023;-73
2021/04/06 00:09:17;;;;;;;;;;;;;;;-1.26;100.00;99677.88;5051682;28;19925;-73
2021/04/06 00:11:44;;;;;;;;;;;;;;;-1.27;100.00;99684.16;5034137;28;19975;-73
2021/04/06 00:14:12;;;;;;;;;;;;;;;-1.32;100.00;99680.84;5052013;28;19928;-73
2021/04/06 00:16:38;;;;;;;;;;;;;;;-1.36;100.00;99671.28;5051654;28;19925;-72
2021/04/06 00:19:05;;;;;;;;;;;;;;;-1.37;100.00;99678.38;5051754;28;19932;-73
2021/04/06 00:21:32;;;;;;;;;;;;;;;-1.38;100.00;99667.81;5051499;28;19955;-72
2021/04/06 00:23:58;;;;;;;;;;;;;;;-1.39;100.00;99674.97;5033901;28;20339;-74
2021/04/06 00:26:24;;;;;;;;;;;;;;;-1.38;100.00;99666.03;5051387;28;20018;-72
2021/04/06 00:28:51;;;;;;;;;;;;;;;-1.38;100.00;99691.78;5051637;28;19924;-72
2021/04/06 00:31:18;;;;;;;;;;;;;;;-1.42;100.00;99669.75;5051638;28;19947;-74
2021/04/06 00:33:46;;;;;;;;;;;;;;;-1.41;100.00;99694.59;5033723;28;20005;-72
2021/04/06 00:36:13;;;;;;;;;;;;;;;-1.43;100.00;99688.47;5051361;28;20289;-72
2021/04/06 00:38:41;;;;;;;;;;;;;;;-1.45;100.00;99690.38;5051501;28;19928;-72
2021/04/06 00:41:09;;;;;;;;;;;;;;;-1.47;100.00;99689.56;5051445;28;20338;-72
2021/04/06 00:43:36;;;;;;;;;;;;;;;-1.49;100.00;99689.63;5051379;28;19931;-72
2021/04/06 00:46:03;;;;;;;;;;;;;;;-1.49;100.00;99683.47;5051168;28;19925;-73
2021/04/06 00:48:31;;;;;;;;;;;;;;;-1.49;100.00;99692.31;5051543;28;19925;-71
2021/04/06 00:51:07;;;;;;;;;;;;;;;-1.54;100.00;99689.88;5051243;28;19925;-74
2021/04/06 00:53:52;;;;;;;;;;;;;;;-1.54;100.00;99689.00;5033534;28;19924;-72
2021/04/06 00:56:17;;;;;;;;;;;;;;;-1.55;100.00;99697.91;5051317;28;19987;-72
2021/04/06 00:58:43;;;;;;;;;;;;;;;-1.57;100.00;99705.97;5051366;28;20381;-72
2021/04/06 01:01:10;;;;;;;;;;;;;;;-1.60;100.00;99703.47;5051152;28;19929;-73
2021/04/06 01:03:37;;;;;;;;;;;;;;;-1.62;100.00;99704.47;5051281;28;20221;-73
2021/04/06 01:06:07;;;;;;;;;;;;;;;-1.64;100.00;99707.19;5051106;28;19931;-73
2021/04/06 01:08:35;;;;;;;;;;;;;;;-1.66;100.00;99700.22;5051330;28;19932;-72
2021/04/06 01:11:02;;;;;;;;;;;;;;;-1.68;100.00;99700.31;5051350;28;19927;-73
2021/04/06 01:13:27;;;;;;;;;;;;;;;-1.71;100.00;99701.31;5051144;28;19925;-73
2021/04/06 01:15:53;;;;;;;;;;;;;;;-1.72;100.00;99701.38;5050984;28;19924;-73
2021/04/06 01:18:20;;;;;;;;;;;;;;;-1.75;100.00;99702.38;5051054;28;19924;-73
2021/04/06 01:20:47;;;;;;;;;;;;;;;-1.76;100.00;99690.00;5033545;28;19940;-72
2021/04/06 01:23:15;;;;;;;;;;;;;;;-1.77;100.00;99717.53;5050885;28;19955;-73
2021/04/06 01:25:42;;;;;;;;;;;;;;;-1.79;100.00;99702.59;5050904;28;19931;-73
2021/04/06 01:28:09;;;;;;;;;;;;;;;-1.79;100.00;99723.88;5050822;28;19947;-73
2021/04/06 01:30:45;;;;;;;;;;;;;;;-1.80;100.00;99723.03;5051247;28;19925;-73
2021/04/06 01:33:11;;;;;;;;;;;;;;;-1.80;100.00;99717.69;5050878;28;19970;-73
2021/04/06 01:35:37;;;;;;;;;;;;;;;-1.82;100.00;99726.69;5050976;28;19936;-73
2021/04/06 01:38:02;;;;;;;;;;;;;;;-1.82;100.00;99732.84;5050950;28;19929;-74
2021/04/06 01:40:30;;;;;;;;;;;;;;;-1.81;100.00;99744.38;5051211;28;19925;-73
2021/04/06 01:42:56;;;;;;;;;;;;;;;-1.80;100.00;99733.66;5050623;28;19924;-73
2021/04/06 01:45:22;;;;;;;;;;;;;;;-1.79;100.00;99738.06;5050778;28;19994;-73
2021/04/06 01:47:48;;;;;;;;;;;;;;;-1.81;100.00;99733.75;5050814;28;19935;-71
2021/04/06 01:50:15;;;;;;;;;;;;;;;-1.85;100.00;99730.34;5050760;28;19983;-73
2021/04/06 01:52:42;;;;;;;;;;;;;;;-1.87;100.00;99741.06;5050756;28;19925;-73
2021/04/06 01:55:14;;;;;;;;;;;;;;;-1.89;100.00;99739.41;5050622;28;19932;-73
2021/04/06 01:57:44;;;;;;;;;;;;;;;-1.91;100.00;99743.91;5050841;28;20011;-72
2021/04/06 02:00:20;;;;;;;;;;;;;;;-1.92;100.00;99734.22;5032885;28;20082;-72
2021/04/06 02:02:46;;;;;;;;;;;;;;;-1.93;100.00;99741.34;5050729;28;19925;-73
2021/04/06 02:05:13;;;;;;;;;;;;;;;-1.95;100.00;99747.66;5034539;28;20957;-72
2021/04/06 02:07:41;;;;;;;;;;;;;;;-1.96;100.00;99746.81;5036574;28;19925;-72
2021/04/06 02:10:07;;;;;;;;;;;;;;;-2.00;100.00;99747.88;5054059;28;20458;-72
2021/04/06 02:12:37;;;;;;;;;;;;;;;-2.04;100.00;99748.94;5036234;28;19925;-72
2021/04/06 02:15:09;;;;;;;;;;;;;;;-2.07;100.00;99749.06;5036273;28;19951;-72
2021/04/06 02:17:45;;;;;;;;;;;;;;;-2.08;100.00;99756.19;5054051;28;19940;-72
2021/04/06 02:20:18;;;;;;;;;;;;;;;-2.07;100.00;99759.69;5054312;28;19925;-71
2021/04/06 02:22:52;;;;;;;;;;;;;;;-2.09;100.00;99754.44;5053925;28;19932;-72
2021/04/06 02:25:18;;;;;;;;;;;;;;;-2.11;100.00;99748.34;5053842;28;19925;-72
2021/04/06 02:27:44;;;;;;;;;;;;;;;-2.13;100.00;99747.53;5053880;28;19931;-72
2021/04/06 02:30:11;;;;;;;;;;;;;;;-2.15;100.00;99751.19;5054010;28;20410;-72
2021/04/06 02:32:37;;;;;;;;;;;;;;;-2.17;100.00;99761.06;5035962;28;19997;-72
2021/04/06 02:35:04;;;;;;;;;;;;;;;-2.21;100.00;99755.84;5053543;28;20447;-72
2021/04/06 02:37:31;;;;;;;;;;;;;;;-2.21;100.00;99769.16;5053675;28;20311;-72
2021/04/06 02:39:58;;;;;;;;;;;;;;;-2.24;100.00;99758.66;5053680;28;19929;-72
2021/04/06 02:42:25;;;;;;;;;;;;;;;-2.27;100.00;99764.13;5053673;28;19944;-72
2021/04/06 02:44:54;;;;;;;;;;;;;;;-2.27;100.00;99756.16;5053619;28;19951;-72
2021/04/06 02:47:21;;;;;;;;;;;;;;;-2.29;100.00;99758.00;5053583;28;19978;-72
2021/04/06 02:49:47;;;;;;;;;;;;;;;-2.28;100.00;99765.03;5054519;28;19928;-72
2021/04/06 02:52:14;;;;;;;;;;;;;;;-2.28;100.00;99765.03;5036442;28;20028;-72
2021/04/06 02:54:40;;;;;;;;;;;;;;;-2.28;100.00;99756.22;5054117;28;20334;-72
2021/04/06 02:57:17;;;;;;;;;;;;;;;-2.28;100.00;99758.88;5054027;28;19925;-72
2021/04/06 02:59:43;;;;;;;;;;;;;;;-2.27;100.00;99752.59;5054364;28;20430;-70
2021/04/06 03:02:09;;;;;;;;;;;;;;;-2.28;100.00;99757.06;5054249;28;19929;-72
2021/04/06 03:04:39;;;;;;;;;;;;;;;-2.27;100.00;99753.47;5036162;28;20083;-72
2021/04/06 03:07:15;;;;;;;;;;;;;;;-2.30;100.00;99764.22;5019809;28;19925;-72
2021/04/06 03:09:41;;;;;;;;;;;;;;;-2.31;100.00;99762.53;5053747;28;19924;-72
2021/04/06 03:12:07;;;;;;;;;;;;;;;-2.33;100.00;99764.38;5052950;28;19940;-72
2021/04/06 03:14:33;;;;;;;;;;;;;;;-2.35;100.00;99760.94;5052969;28;19970;-72
2021/04/06 03:16:58;;;;;;;;;;;;;;;-2.33;100.00;99759.06;5051545;28;20020;-72
2021/04/06 03:19:31;;;;;;;;;;;;;;;-2.32;100.00;99763.44;5035203;28;19964;-71
2021/04/06 03:21:58;;;;;;;;;;;;;;;-2.36;100.00;99757.38;5052705;28;20011;-71
2021/04/06 03:24:26;;;;;;;;;;;;;;;-2.36;100.00;99753.88;5052894;28;19931;-72
2021/04/06 03:26:52;;;;;;;;;;;;;;;-2.37;100.00;99752.16;5052368;28;19925;-72
2021/04/06 03:29:18;;;;;;;;;;;;;;;-2.36;100.00;99754.72;5037210;28;19964;-71
2021/04/06 03:31:44;;;;;;;;;;;;;;;-2.38;100.00;99753.94;5058433;28;20216;-72
2021/04/06 03:34:10;;;;;;;;;;;;;;;-2.39;100.00;99746.91;5038362;28;19929;-70
2021/04/06 03:36:36;;;;;;;;;;;;;;;-2.40;100.00;99747.81;5055783;28;20434;-71
2021/04/06 03:39:04;;;;;;;;;;;;;;;-2.39;100.00;99743.41;5038466;28;19970;-73
2021/04/06 03:41:31;;;;;;;;;;;;;;;-2.40;100.00;99753.16;5053398;28;20320;-72
2021/04/06 03:44:02;;;;;;;;;;;;;;;-2.40;100.00;99754.94;5051913;28;19929;-72
2021/04/06 03:46:28;;;;;;;;;;;;;;;-2.44;100.00;99756.00;5034575;28;19983;-72
2021/04/06 03:49:10;;;;;;;;;;;;;;;-2.44;100.00;99756.88;5052465;28;19925;-71
2021/04/06 03:51:36;;;;;;;;;;;;;;;-2.43;100.00;99757.72;5052392;28;19933;-72
2021/04/06 03:54:04;;;;;;;;;;;;;;;-2.45;100.00;99762.25;5052172;28;19925;-71
2021/04/06 03:56:30;;;;;;;;;;;;;;;-2.44;100.00;99756.00;5052101;28;19970;-72
2021/04/06 03:58:57;;;;;;;;;;;;;;;-2.44;100.00;99754.22;5052260;28;19932;-72
2021/04/06 04:01:23;;;;;;;;;;;;;;;-2.45;100.00;99749.81;5052298;28;19954;-72
2021/04/06 04:03:52;;;;;;;;;;;;;;;-2.49;100.00;99763.31;5033929;28;19924;-72
2021/04/06 04:06:22;;;;;;;;;;;;;;;-2.46;100.00;99763.16;5051763;28;19925;-72
2021/04/06 04:08:48;;;;;;;;;;;;;;;-2.47;100.00;99762.31;5052034;28;19970;-71
2021/04/06 04:11:14;;;;;;;;;;;;;;;-2.48;100.00;99757.94;5052064;28;20020;-72
2021/04/06 04:13:40;;;;;;;;;;;;;;;-2.49;100.00;99755.34;5051616;28;19928;-72
2021/04/06 04:16:06;;;;;;;;;;;;;;;-2.52;100.00;99753.69;5051633;28;19986;-72
2021/04/06 04:18:32;;;;;;;;;;;;;;;-2.54;100.00;99756.41;5050605;28;19998;-72
2021/04/06 04:20:58;;;;;;;;;;;;;;;-2.57;100.00;99745.03;5040586;28;19925;-72
2021/04/06 04:23:24;;;;;;;;;;;;;;;-2.59;100.00;99761.03;5051922;28;20462;-72
2021/04/06 04:25:50;;;;;;;;;;;;;;;-2.63;100.00;99756.78;5023154;28;20466;-72
2021/04/06 04:28:16;;;;;;;;;;;;;;;-2.61;100.00;99748.75;5018003;28;19990;-72
2021/04/06 04:30:47;;;;;;;;;;;;;;;-2.63;100.00;99754.13;5053343;28;19929;-72
2021/04/06 04:33:13;;;;;;;;;;;;;;;-2.65;100.00;99748.00;5056269;28;19925;-71
2021/04/06 04:35:38;;;;;;;;;;;;;;;-2.67;100.00;99741.91;5034966;28;19925;-72
2021/04/06 04:38:05;;;;;;;;;;;;;;;-2.65;100.00;99745.34;5063555;28;19925;-72
2021/04/06 04:40:31;;;;;;;;;;;;;;;-2.64;100.00;99748.88;5027474;28;19932;-72
2021/04/06 04:42:57;;;;;;;;;;;;;;;-2.63;100.00;99742.63;4998148;28;20388;-72
2021/04/06 04:45:24;;;;;;;;;;;;;;;-2.61;100.00;99746.94;5031239;28;19975;-72
2021/04/06 04:47:50;;;;;;;;;;;;;;;-2.60;100.00;99746.03;5051621;28;19971;-72
2021/04/06 04:50:16;;;;;;;;;;;;;;;-2.60;100.00;99747.81;5035494;28;19932;-72
2021/04/06 04:52:43;;;;;;;;;;;;;;;-2.60;100.00;99750.50;5031089;28;19987;-72
2021/04/06 04:55:09;;;;;;;;;;;;;;;-2.57;100.00;99742.38;5013775;28;19999;-72
2021/04/06 04:57:35;;;;;;;;;;;;;;;-2.57;100.00;99751.19;5032816;28;19929;-71
2021/04/06 05:00:01;;;;;;;;;;;;;;;-2.55;100.00;99738.72;5033422;28;19924;-71
2021/04/06 05:02:28;;;;;;;;;;;;;;;-2.55;100.00;99751.16;5033584;28;19929;-72
2021/04/06 05:04:53;;;;;;;;;;;;;;;-2.56;100.00;99744.09;5013293;28;19994;-71
2021/04/06 05:07:19;;;;;;;;;;;;;;;-2.56;100.00;99754.75;5046151;28;20380;-71
2021/04/06 05:09:46;;;;;;;;;;;;;;;-2.55;100.00;99754.66;5051174;28;19925;-72
2021/04/06 05:12:12;;;;;;;;;;;;;;;-2.55;100.00;99749.34;5036615;28;19932;-72
2021/04/06 05:14:38;;;;;;;;;;;;;;;-2.55;100.00;99753.81;5031106;28;19925;-72
2021/04/06 05:17:04;;;;;;;;;;;;;;;-2.53;100.00;99752.78;5035828;28;19979;-71
2021/04/06 05:19:31;;;;;;;;;;;;;;;-2.50;100.00;99756.25;5039468;28;20023;-71
2021/04/06 05:21:56;;;;;;;;;;;;;;;-2.47;100.00;99753.47;5031021;28;19953;-71
2021/04/06 05:24:22;;;;;;;;;;;;;;;-2.44;100.00;99751.56;5041301;28;19925;-71
2021/04/06 05:26:48;;;;;;;;;;;;;;;-2.32;100.00;99750.16;5050550;28;20006;-71
2021/04/06 05:29:14;;;;;;;;;;;;;;;-2.08;100.00;99752.69;5034466;28;20012;-72
2021/04/06 05:31:40;;;;;;;;;;;;;;;-1.75;100.00;99765.38;5030924;28;19979;-72
2021/04/06 05:34:06;;;;;;;;;;;;;;;-1.38;100.00;99756.56;5044765;28;19931;-70
2021/04/06 05:36:33;;;;;;;;;;;;;;;-1.09;100.00;99758.75;5050665;28;20319;-72
2021/04/06 05:38:59;;;;;;;;;;;;;;;-0.88;100.00;99756.84;5037458;28;19925;-70
2021/04/06 05:41:26;;;;;;;;;;;;;;;-0.57;100.00;99750.00;5034694;28;19979;-72
2021/04/06 05:43:55;;;;;;;;;;;;;;;-0.48;100.00;99748.66;5042428;28;19940;-72
2021/04/06 05:46:22;;;;;;;;;;;;;;;-0.31;100.00;99745.97;5044127;28;19925;-71
2021/04/06 05:48:49;;;;;;;;;;;;;;;0.06;100.00;99748.53;5053470;28;20047;-70
2021/04/06 05:51:16;;;;;;;;;;;;;;;0.15;100.00;99742.69;5053872;28;19936;-71
2021/04/06 05:53:42;;;;;;;;;;;;;;;0.27;100.00;99742.03;5048514;28;19933;-71
2021/04/06 05:56:08;;;;;;;;;;;;;;;0.43;100.00;99742.06;5052265;28;19928;-71
2021/04/06 05:58:34;;;;;;;;;;;;;;;0.69;100.00;99744.22;5044288;28;20273;-70
2021/04/06 06:01:00;;;;;;;;;;;;;;;0.34;100.00;99742.56;5052800;28;19924;-71
2021/04/06 06:03:26;;;;;;;;;;;;;;;0.53;100.00;99741.56;5052859;28;20385;-70
2021/04/06 06:05:52;;;;;;;;;;;;;;;0.32;100.00;99741.75;5052089;28;19932;-71
2021/04/06 06:08:19;;;;;;;;;;;;;;;0.37;100.00;99738.84;5034250;28;19941;-70
2021/04/06 06:10:45;;;;;;;;;;;;;;;0.69;100.00;99742.41;5053445;28;20454;-71
2021/04/06 06:13:14;;;;;;;;;;;;;;;0.80;100.00;99737.34;5035224;28;19955;-70
2021/04/06 06:15:40;;;;;;;;;;;;;;;1.00;100.00;99740.66;5033594;28;20262;-72
2021/04/06 06:18:06;;;;;;;;;;;;;;;1.10;100.00;99744.56;5052562;28;19925;-72
2021/04/06 06:20:32;;;;;;;;;;;;;;;1.36;100.00;99727.94;5053738;28;19929;-72
2021/04/06 06:23:12;;;;;;;;;;;;;;;1.63;100.00;99731.66;5036540;28;19933;-72
2021/04/06 06:25:38;;;;;;;;;;;;;;;2.05;100.00;99729.13;5033082;28;19940;-72
2021/04/06 06:28:10;;;;;;;;;;;;;;;2.30;100.00;99724.94;5049227;28;19933;-72
2021/04/06 06:30:38;;;;;;;;;;;;;;;2.57;100.00;99730.34;5044627;28;19925;-72
2021/04/06 06:33:18;;;;;;;;;;;;;;;2.12;100.00;99724.25;5052395;28;19929;-72
2021/04/06 06:35:45;;;;;;;;;;;;;;;2.42;100.00;99726.84;5041253;28;19926;-72
2021/04/06 06:38:17;;;;;;;;;;;;;;;2.43;100.00;99727.69;5033477;28;19935;-73
2021/04/06 06:40:44;;;;;;;;;;;;;;;2.75;100.00;99722.94;5045120;28;19925;-72
2021/04/06 06:43:12;;;;;;;;;;;;;;;2.93;100.00;99730.78;5033267;28;19982;-73
2021/04/06 06:45:38;;;;;;;;;;;;;;;2.50;100.00;99724.53;5031722;28;19979;-72
2021/04/06 06:48:04;;;;;;;;;;;;;;;2.89;100.00;99723.91;5047860;28;19925;-72
2021/04/06 06:50:30;;;;;;;;;;;;;;;2.78;100.00;99721.88;5045315;28;19994;-72
2021/04/06 06:52:57;;;;;;;;;;;;;;;2.74;100.00;99731.97;5034959;28;20059;-72
2021/04/06 06:55:24;;;;;;;;;;;;;;;3.22;100.00;99733.34;5033751;28;19925;-72
2021/04/06 06:57:50;;;;;;;;;;;;;;;2.82;100.00;99724.28;5049360;28;20414;-72
2021/04/06 07:00:18;;;;;;;;;;;;;;;2.18;100.00;99726.56;5044144;28;19928;-72
2021/04/06 07:02:44;;;;;;;;;;;;;;;1.65;100.00;99731.56;5033233;28;19925;-71
2021/04/06 07:05:17;;;;;;;;;;;;;;;1.71;100.00;99717.81;5040238;28;20268;-71
2021/04/06 07:07:48;;;;;;;;;;;;;;;1.75;100.00;99732.75;5036604;28;19925;-72
2021/04/06 07:10:14;;;;;;;;;;;;;;;1.36;100.00;99742.16;5048232;28;20396;-72
2021/04/06 07:12:41;;;;;;;;;;;;;;;1.30;100.00;99730.03;5052707;28;19928;-72
2021/04/06 07:15:08;;;;;;;;;;;;;;;1.32;100.00;99724.56;5052638;28;19924;-73
2021/04/06 07:17:34;;;;;;;;;;;;;;;1.37;100.00;99711.81;5036051;28;20304;-72
2021/04/06 07:20:01;;;;;;;;;;;;;;;1.80;100.00;99713.72;5039891;28;19963;-72
2021/04/06 07:22:27;;;;;;;;;;;;;;;1.96;100.00;99714.47;5052808;28;19929;-73
2021/04/06 07:24:53;;;;;;;;;;;;;;;1.81;100.00;99712.75;5047815;28;19979;-72
2021/04/06 07:27:20;;;;;;;;;;;;;;;1.87;100.00;99704.38;5052410;28;19929;-72
2021/04/06 07:29:46;;;;;;;;;;;;;;;2.33;100.00;99709.53;5050812;28;19998;-72
2021/04/06 07:32:13;;;;;;;;;;;;;;;2.46;100.00;99712.28;5051117;28;19933;-73
2021/04/06 07:34:41;;;;;;;;;;;;;;;2.53;100.00;99718.13;5050799;28;19932;-73
2021/04/06 07:37:07;;;;;;;;;;;;;;;2.90;100.00;99720.22;5032284;28;19983;-73
2021/04/06 07:39:33;;;;;;;;;;;;;;;2.93;100.00;99720.03;5033433;28;19931;-72
2021/04/06 07:42:00;;;;;;;;;;;;;;;2.53;100.00;99710.06;5045560;28;20450;-72
2021/04/06 07:44:26;;;;;;;;;;;;;;;2.72;100.00;99709.75;5038679;28;20265;-72
2021/04/06 07:46:52;;;;;;;;;;;;;;;3.47;100.00;99705.72;5031880;28;19929;-72
2021/04/06 07:49:35;;;;;;;;;;;;;;;3.82;100.00;99716.75;5045398;28;19929;-73
2021/04/06 07:52:03;;;;;;;;;;;;;;;2.92;100.00;99715.63;5043983;28;20335;-72
2021/04/06 07:54:46;;;;;;;;;;;;;;;2.72;100.00;99719.63;5019795;28;20357;-72
2021/04/06 07:57:12;;;;;;;;;;;;;;;2.88;100.00;99712.28;5054380;28;19931;-72
2021/04/06 07:59:43;;;;;;;;;;;;;;;3.24;100.00;99712.66;5045814;28;20351;-73
2021/04/06 08:02:32;;;;;;;;;;;;;;;3.30;100.00;99720.28;5051115;28;19968;-73
2021/04/06 08:04:59;;;;;;;;;;;;;;;3.67;100.00;99723.16;5020435;28;20337;-72
2021/04/06 08:07:27;;;;;;;;;;;;;;;3.56;100.00;99715.84;5045178;28;19929;-72
2021/04/06 08:09:53;;;;;;;;;;;;;;;3.12;100.00;99717.00;5032684;28;19925;-72
2021/04/06 08:12:20;;;;;;;;;;;;;;;2.76;100.00;99724.66;5047817;28;19968;-72
2021/04/06 08:14:47;;;;;;;;;;;;;;;3.04;100.00;99725.56;5033306;28;19925;-73
2021/04/06 08:17:32;;;;;;;;;;;;;;;3.36;100.00;99717.19;5031054;28;19930;-72
2021/04/06 08:19:59;;;;;;;;;;;;;;;3.75;100.00;99712.75;5032425;28;19936;-72
2021/04/06 08:22:25;;;;;;;;;;;;;;;3.41;100.00;99711.50;5049435;28;19978;-72
2021/04/06 08:24:52;;;;;;;;;;;;;;;3.43;100.00;99709.59;5050744;28;19925;-72
2021/04/06 08:27:34;;;;;;;;;;;;;;;4.39;100.00;99702.97;5049317;28;20030;-72
2021/04/06 08:30:18;;;;;;;;;;;;;;;5.68;100.00;99712.22;5038484;28;19986;-72
2021/04/06 08:33:11;;;;;;;;;;;;;;;6.15;100.00;99706.81;5031033;28;20031;-72
2021/04/06 08:35:57;;;;;;;;;;;;;;;6.09;100.00;99709.97;5042784;28;19935;-72
2021/04/06 08:38:41;;;;;;;;;;;;;;;6.37;100.00;99718.56;5042969;28;20401;-72
2021/04/06 08:41:10;;;;;;;;;;;;;;;5.43;100.00;99729.38;5031935;28;20292;-72
2021/04/06 08:43:38;;;;;;;;;;;;;;;5.16;100.00;99729.63;5030948;28;19925;-72
2021/04/06 08:46:04;;;;;;;;;;;;;;;5.08;100.00;99727.50;5043257;28;19925;-72
2021/04/06 08:48:47;;;;;;;;;;;;;;;5.12;100.00;99730.81;5032751;28;19928;-72
2021/04/06 08:51:23;;;;;;;;;;;;;;;5.29;100.00;99732.25;5049924;28;19925;-72
2021/04/06 08:53:49;;;;;;;;;;;;;;;4.91;100.00;99727.88;5049641;28;19931;-72
2021/04/06 08:56:17;;;;;;;;;;;;;;;5.64;100.00;99726.88;5049451;28;19928;-73
2021/04/06 08:58:43;;;;;;;;;;;;;;;5.70;100.00;99726.44;5048409;28;20388;-73
2021/04/06 09:01:08;;;;;;;;;;;;;;;5.74;100.00;99721.63;5034562;28;20435;-72
2021/04/06 09:03:34;;;;;;;;;;;;;;;5.69;99.59;99716.63;5050701;28;19925;-72
2021/04/06 09:06:05;;;;;;;;;;;;;;;5.60;100.00;99725.41;5048692;28;19991;-72
2021/04/06 09:08:45;;;;;;;;;;;;;;;5.48;100.00;99735.28;5048988;28;19933;-72
2021/04/06 09:11:11;;;;;;;;;;;;;;;5.98;100.00;99726.16;5048543;28;19990;-73
2021/04/06 09:13:37;;;;;;;;;;;;;;;5.43;98.21;99724.00;5039256;28;19924;-72
2021/04/06 09:16:04;;;;;;;;;;;;;;;5.02;100.00;99730.63;5036068;28;19925;-72
2021/04/06 09:18:34;;;;;;;;;;;;;;;5.08;100.00;99732.00;5054333;28;19925;-72
2021/04/06 09:21:00;;;;;;;;;;;;;;;5.43;100.00;99728.53;5053604;28;19970;-72
2021/04/06 09:23:27;;;;;;;;;;;;;;;5.09;100.00;99725.66;5052863;28;19932;-72
2021/04/06 09:25:53;;;;;;;;;;;;;;;4.48;100.00;99735.41;5054273;28;19932;-72
2021/04/06 09:28:19;;;;;;;;;;;;;;;4.26;100.00;99728.03;5046390;28;19929;-73
2021/04/06 09:30:45;;;;;;;;;;;;;;;4.24;100.00;99723.72;5049162;28;19925;-73
2021/04/06 09:33:13;;;;;;;;;;;;;;;4.18;100.00;99733.94;5022077;28;20440;-73
2021/04/06 09:35:39;;;;;;;;;;;;;;;4.25;100.00;99730.78;5036746;28;19933;-73
2021/04/06 09:38:06;;;;;;;;;;;;;;;4.01;100.00;99724.38;5034775;28;19926;-72
2021/04/06 09:40:33;;;;;;;;;;;;;;;3.62;100.00;99722.59;5053175;28;19925;-71
2021/04/06 09:43:00;;;;;;;;;;;;;;;3.54;100.00;99725.84;5037643;28;20376;-72
2021/04/06 09:45:26;;;;;;;;;;;;;;;3.72;100.00;99725.53;5018615;28;20300;-72
2021/04/06 09:47:53;;;;;;;;;;;;;;;3.77;100.00;99726.94;5050693;28;19969;-72
2021/04/06 09:50:19;;;;;;;;;;;;;;;3.68;100.00;99725.72;5054413;28;20574;-73
2021/04/06 09:52:46;;;;;;;;;;;;;;;3.50;100.00;99725.16;5034187;28;20025;-74
2021/04/06 09:55:12;;;;;;;;;;;;;;;3.40;100.00;99721.38;5053500;28;20360;-73
2021/04/06 09:57:39;;;;;;;;;;;;;;;3.52;100.00;99717.84;5026195;28;19925;-73
2021/04/06 10:00:08;;;;;;;;;;;;;;;4.51;100.00;99713.66;5033880;28;19932;-73
2021/04/06 10:02:34;;;;;;;;;;;;;;;4.66;100.00;99710.84;5035085;28;20028;-73
2021/04/06 10:05:01;;;;;;;;;;;;;;;4.59;100.00;99709.59;5047210;28;19924;-72
2021/04/06 10:07:28;;;;;;;;;;;;;;;4.56;100.00;99699.03;5047010;28;19925;-73
2021/04/06 10:09:55;;;;;;;;;;;;;;;5.33;100.00;99701.44;5039235;28;19925;-73
2021/04/06 10:12:21;;;;;;;;;;;;;;;5.49;100.00;99707.38;5053758;28;19932;-73
2021/04/06 10:14:47;;;;;;;;;;;;;;;5.46;100.00;99710.28;5053248;28;20388;-73
2021/04/06 10:17:15;;;;;;;;;;;;;;;5.15;100.00;99692.94;5035517;28;19932;-72
2021/04/06 10:19:42;;;;;;;;;;;;;;;5.34;100.00;99706.72;5051767;28;19932;-73
2021/04/06 10:22:10;;;;;;;;;;;;;;;5.11;100.00;99702.19;5033592;28;19929;-72
2021/04/06 10:24:38;;;;;;;;;;;;;;;4.62;100.00;99703.97;5016371;28;19925;-72
2021/04/06 10:27:07;;;;;;;;;;;;;;;4.38;100.00;99693.19;5053270;28;19925;-72
2021/04/06 10:29:33;;;;;;;;;;;;;;;4.58;100.00;99689.88;5053170;28;19925;-72
2021/04/06 10:32:01;;;;;;;;;;;;;;;5.66;100.00;99686.38;5048932;28;19947;-73
2021/04/06 10:34:27;;;;;;;;;;;;;;;5.99;96.78;99687.47;5035853;28;20027;-72
2021/04/06 10:36:54;;;;;;;;;;;;;;;6.92;87.11;99663.84;5045031;28;19947;-73
2021/04/06 10:39:29;;;;;;;;;;;;;;;6.90;81.47;99665.81;5033583;28;19929;-73
2021/04/06 10:41:55;;;;;;;;;;;;;;;6.60;86.27;99670.91;5034439;28;20303;-72
2021/04/06 10:44:21;;;;;;;;;;;;;;;5.72;91.56;99668.88;5038201;28;19998;-73
2021/04/06 10:46:47;;;;;;;;;;;;;;;4.75;100.00;99674.38;5052320;28;19932;-72
2021/04/06 10:49:13;;;;;;;;;;;;;;;4.83;100.00;99675.50;5052898;28;19924;-72
2021/04/06 10:51:47;;;;;;;;;;;;;;;5.56;100.00;99667.38;5038604;28;19929;-72
2021/04/06 10:54:14;;;;;;;;;;;;;;;5.45;100.00;99667.34;5038618;28;19925;-72
2021/04/06 10:56:42;;;;;;;;;;;;;;;5.34;100.00;99668.16;5040136;28;19929;-72
2021/04/06 10:59:10;;;;;;;;;;;;;;;5.30;100.00;99664.84;5052489;28;20304;-72
2021/04/06 11:01:37;;;;;;;;;;;;;;;4.91;100.00;99657.97;5039801;28;19932;-72
2021/04/06 11:04:09;;;;;;;;;;;;;;;5.55;100.00;99651.38;5033299;28;19925;-72
2021/04/06 11:06:36;;;;;;;;;;;;;;;5.08;100.00;99649.47;5045879;28;20296;-72
2021/04/06 11:09:10;;;;;;;;;;;;;;;6.20;100.00;99639.94;5037849;28;20343;-73
2021/04/06 11:11:35;;;;;;;;;;;;;;;7.17;94.57;99636.50;5033104;28;19964;-73
2021/04/06 11:14:03;;;;;;;;;;;;;;;7.71;92.27;99626.53;5042103;28;19947;-73
2021/04/06 11:16:29;;;;;;;;;;;;;;;7.57;88.26;99616.06;5034455;28;20287;-73
2021/04/06 11:19:00;;;;;;;;;;;;;;;7.56;92.06;99622.44;5040272;28;19935;-73
2021/04/06 11:21:26;;;;;;;;;;;;;;;7.66;94.17;99620.66;5045959;28;20029;-73
2021/04/06 11:23:52;;;;;;;;;;;;;;;6.73;91.03;99627.59;5032685;28;20389;-74
2021/04/06 11:26:18;;;;;;;;;;;;;;;5.97;88.24;99632.78;5033787;28;19929;-73
2021/04/06 11:28:44;;;;;;;;;;;;;;;4.87;100.00;99668.09;5036370;28;20392;-73
2021/04/06 11:31:11;;;;;;;;;;;;;;;4.32;100.00;99670.31;5030759;28;20354;-73
2021/04/06 11:33:36;;;;;;;;;;;;;;;3.82;100.00;99667.53;5040960;28;19972;-73
2021/04/06 11:36:02;;;;;;;;;;;;;;;3.48;100.00;99659.16;5046031;28;19960;-73
2021/04/06 11:38:28;;;;;;;;;;;;;;;4.07;100.00;99652.38;5051163;28;19933;-73
2021/04/06 11:40:54;;;;;;;;;;;;;;;5.48;100.00;99641.06;5052350;28;19931;-74
2021/04/06 11:43:20;;;;;;;;;;;;;;;7.10;100.00;99643.41;5029268;28;19925;-74
2021/04/06 11:45:46;;;;;;;;;;;;;;;6.97;100.00;99640.03;5022667;28;20380;-73
2021/04/06 11:48:13;;;;;;;;;;;;;;;6.19;100.00;99640.06;5014340;28;20023;-73
2021/04/06 11:50:39;;;;;;;;;;;;;;;4.68;100.00;99673.97;5048575;28;20419;-73
2021/04/06 11:53:05;;;;;;;;;;;;;;;3.82;100.00;99679.16;5021488;28;19925;-73
2021/04/06 11:55:30;;;;;;;;;;;;;;;2.75;100.00;99680.06;5032032;28;19971;-73
2021/04/06 11:58:04;;;;;;;;;;;;;;;2.24;100.00;99675.28;5095954;27;20007;-71
2021/04/06 12:00:30;;;;;;;;;;;;;;;1.89;100.00;99674.84;5089239;28;20094;-73
2021/04/06 12:02:56;;;;;;;;;;;;;;;2.01;100.00;99671.38;5088187;28;20419;-71
2021/04/06 12:05:22;;;;;;;;;;;;;;;2.51;100.00;99671.78;5088333;28;19935;-70
2021/04/06 12:07:48;;;;;;;;;;;;;;;4.30;100.00;99656.97;5088568;28;19924;-71
2021/04/06 12:10:15;;;;;;;;;;;;;;;5.31;100.00;99650.41;5088662;28;20011;-73
2021/04/06 12:12:41;;;;;;;;;;;;;;;6.63;100.00;99646.38;5088002;28;20391;-71
2021/04/06 12:15:08;;;;;;;;;;;;;;;7.75;100.00;99637.94;5088241;28;19925;-72
2021/04/06 12:17:34;;;;;;;;;;;;;;;7.97;97.24;99628.78;5086880;28;19931;-71
2021/04/06 12:20:00;;;;;;;;;;;;;;;8.93;96.76;99624.84;5088671;28;19924;-71
2021/04/06 12:22:26;;;;;;;;;;;;;;;9.05;86.65;99629.13;5088232;28;19978;-72
2021/04/06 12:24:52;;;;;;;;;;;;;;;9.61;88.32;99618.56;5088996;28;19981;-72
2021/04/06 12:27:18;;;;;;;;;;;;;;;9.37;73.77;99618.00;5087522;28;20398;-72
2021/04/06 12:29:44;;;;;;;;;;;;;;;8.31;79.10;99614.13;5086569;28;19967;-71
2021/04/06 12:32:10;;;;;;;;;;;;;;;7.78;87.25;99617.91;5087546;28;20379;-71
2021/04/06 12:34:36;;;;;;;;;;;;;;;7.04;91.50;99630.44;5087810;28;19975;-71
2021/04/06 12:37:02;;;;;;;;;;;;;;;6.36;100.00;99627.94;5087758;28;19936;-71
2021/04/06 12:39:28;;;;;;;;;;;;;;;5.35;100.00;99621.44;5087971;28;19963;-71
2021/04/06 12:41:54;;;;;;;;;;;;;;;5.07;100.00;99628.94;5087771;28;19955;-71
2021/04/06 12:44:20;;;;;;;;;;;;;;;5.19;100.00;99619.06;5087700;28;19975;-71
2021/04/06 12:46:45;;;;;;;;;;;;;;;5.52;100.00;99604.00;5087432;28;19928;-71